createdAt,value
2023-04-20T00:00:23.333Z,23.7312
2023-04-20T00:01:25.004Z,23.6992
2023-04-20T00:02:26.681Z,23.7023
2023-04-20T00:03:28.606Z,23.7496
2023-04-20T00:04:29.969Z,23.8181
2023-04-20T00:05:31.673Z,23.8981
2023-04-20T00:06:33.249Z,23.9919
2023-04-20T00:07:34.885Z,24.0635
2023-04-20T00:08:36.541Z,24.1415
2023-04-20T00:09:38.209Z,24.2142
2023-04-20T00:10:39.756Z,24.2323
2023-04-20T00:11:41.520Z,24.2642
2023-04-20T00:12:43.081Z,24.2588
2023-04-20T00:13:44.829Z,24.2508
2023-04-20T00:14:46.402Z,24.2473
2023-04-20T00:15:48.045Z,24.2400
2023-04-20T00:16:49.687Z,24.1900
2023-04-20T00:17:51.346Z,24.0969
2023-04-20T00:18:53.058Z,23.9750
2023-04-20T00:19:54.694Z,23.8842
2023-04-20T00:20:56.240Z,23.8438
2023-04-20T00:21:57.901Z,23.7958
2023-04-20T00:22:59.519Z,23.7754
2023-04-20T00:24:01.256Z,23.7588
2023-04-20T00:25:02.849Z,23.7596
2023-04-20T00:26:04.510Z,23.7965
2023-04-20T00:27:06.169Z,23.8812
2023-04-20T00:28:07.885Z,23.9815
2023-04-20T00:29:09.482Z,24.0650
2023-04-20T00:30:11.161Z,24.1400
2023-04-20T00:31:12.773Z,24.1862
2023-04-20T00:32:14.375Z,24.2004
2023-04-20T00:33:16.036Z,24.1885
2023-04-20T00:34:17.768Z,24.1596
2023-04-20T00:35:19.362Z,24.0923
2023-04-20T00:36:21.006Z,24.0015
2023-04-20T00:37:22.648Z,23.9488
2023-04-20T00:38:24.322Z,23.8735
2023-04-20T00:39:25.923Z,23.8004
2023-04-20T00:40:27.688Z,23.7373
2023-04-20T00:41:29.309Z,23.7088
2023-04-20T00:42:31.513Z,23.7181
2023-04-20T00:43:32.561Z,23.7938
2023-04-20T00:44:34.325Z,23.8608
2023-04-20T00:45:35.841Z,23.9562
2023-04-20T00:46:37.524Z,24.0242
2023-04-20T00:47:39.126Z,24.0804
2023-04-20T00:48:40.731Z,24.1188
2023-04-20T00:49:42.472Z,24.1200
2023-04-20T00:50:45.041Z,24.0904
2023-04-20T00:51:45.730Z,24.0323
2023-04-20T00:52:47.359Z,23.9835
2023-04-20T00:53:49.035Z,23.9192
2023-04-20T00:54:50.668Z,23.8769
2023-04-20T00:55:52.351Z,23.7823
2023-04-20T00:56:54.049Z,23.7119
2023-04-20T00:57:55.596Z,23.6331
2023-04-20T00:58:57.242Z,23.6785
2023-04-20T00:59:58.971Z,23.7612
2023-04-20T01:01:00.557Z,23.8088
2023-04-20T01:02:02.379Z,23.8558
2023-04-20T01:03:03.962Z,23.9381
2023-04-20T01:04:05.642Z,24.0104
2023-04-20T01:05:07.209Z,24.0477
2023-04-20T01:06:08.784Z,24.0362
2023-04-20T01:07:10.395Z,23.9735
2023-04-20T01:08:12.073Z,23.9288
2023-04-20T01:09:13.799Z,23.8827
2023-04-20T01:10:15.433Z,23.8219
2023-04-20T01:11:16.972Z,23.7442
2023-04-20T01:12:18.655Z,23.6565
2023-04-20T01:13:20.280Z,23.5885
2023-04-20T01:14:21.923Z,23.6215
2023-04-20T01:15:23.646Z,23.7235
2023-04-20T01:16:25.244Z,23.7900
2023-04-20T01:17:26.956Z,23.8388
2023-04-20T01:18:28.551Z,23.9138
2023-04-20T01:19:30.203Z,23.9958
2023-04-20T01:20:31.831Z,24.0454
2023-04-20T01:21:33.521Z,24.0985
2023-04-20T01:22:35.099Z,24.1554
2023-04-20T01:23:36.769Z,24.2069
2023-04-20T01:24:38.482Z,24.2269
2023-04-20T01:25:40.128Z,24.2304
2023-04-20T01:26:41.751Z,24.1912
2023-04-20T01:27:43.350Z,24.1108
2023-04-20T01:28:45.003Z,24.0788
2023-04-20T01:29:46.644Z,24.0123
2023-04-20T01:30:48.349Z,23.9535
2023-04-20T01:31:50.178Z,23.8554
2023-04-20T01:32:51.616Z,23.7900
2023-04-20T01:33:53.211Z,23.7169
2023-04-20T01:34:54.913Z,23.6342
2023-04-20T01:35:56.561Z,23.6462
2023-04-20T01:36:58.223Z,23.7185
2023-04-20T01:37:59.765Z,23.7912
2023-04-20T01:39:01.452Z,23.8435
2023-04-20T01:40:03.155Z,23.8904
2023-04-20T01:41:04.843Z,23.9677
2023-04-20T01:42:06.429Z,24.0085
2023-04-20T01:43:08.168Z,24.0396
2023-04-20T01:44:09.707Z,24.0565
2023-04-20T01:45:11.397Z,24.0623
2023-04-20T01:46:13.104Z,24.0477
2023-04-20T01:47:14.732Z,24.0188
2023-04-20T01:48:16.299Z,23.9750
2023-04-20T01:49:18.118Z,23.9312
2023-04-20T01:50:19.654Z,23.8854
2023-04-20T01:51:21.305Z,23.8288
2023-04-20T01:52:22.960Z,23.7646
2023-04-20T01:53:24.527Z,23.6623
2023-04-20T01:54:26.206Z,23.5862
2023-04-20T01:55:28.485Z,23.5977
2023-04-20T01:56:29.593Z,23.7112
2023-04-20T01:57:31.118Z,23.7812
2023-04-20T01:58:32.822Z,23.8219
2023-04-20T01:59:34.392Z,23.8862
2023-04-20T02:00:36.104Z,23.9719
2023-04-20T02:01:37.776Z,24.0408
2023-04-20T02:02:39.624Z,24.1012
2023-04-20T02:03:41.130Z,24.1592
2023-04-20T02:04:42.667Z,24.1969
2023-04-20T02:05:44.279Z,24.1708
2023-04-20T02:06:46.074Z,24.0812
2023-04-20T02:07:47.640Z,24.0177
2023-04-20T02:08:49.251Z,23.9892
2023-04-20T02:09:50.918Z,23.9677
2023-04-20T02:10:52.551Z,23.9112
2023-04-20T02:11:54.217Z,23.8381
2023-04-20T02:12:56.601Z,23.7838
2023-04-20T02:13:57.518Z,23.7088
2023-04-20T02:14:59.123Z,23.6604
2023-04-20T02:16:00.762Z,23.7177
2023-04-20T02:17:02.468Z,23.7915
2023-04-20T02:18:04.126Z,23.8254
2023-04-20T02:19:05.796Z,23.8685
2023-04-20T02:20:07.401Z,23.9296
2023-04-20T02:21:09.005Z,24.0077
2023-04-20T02:22:11.545Z,24.0692
2023-04-20T02:23:12.358Z,24.1415
2023-04-20T02:24:13.924Z,24.2069
2023-04-20T02:25:15.641Z,24.2519
2023-04-20T02:26:17.268Z,24.2704
2023-04-20T02:27:18.920Z,24.2677
2023-04-20T02:28:20.604Z,24.2550
2023-04-20T02:29:22.166Z,24.1815
2023-04-20T02:30:23.817Z,24.1146
2023-04-20T02:31:25.549Z,24.0869
2023-04-20T02:32:27.207Z,24.0365
2023-04-20T02:33:28.807Z,23.9604
2023-04-20T02:34:30.358Z,23.8469
2023-04-20T02:35:32.054Z,23.7350
2023-04-20T02:36:33.683Z,23.6465
2023-04-20T02:37:35.445Z,23.6027
2023-04-20T02:38:36.994Z,23.6704
2023-04-20T02:39:38.646Z,23.7738
2023-04-20T02:40:40.260Z,23.8454
2023-04-20T02:41:41.959Z,23.9327
2023-04-20T02:42:43.583Z,24.0081
2023-04-20T02:43:46.105Z,24.0758
2023-04-20T02:44:46.832Z,24.1435
2023-04-20T02:45:48.493Z,24.1385
2023-04-20T02:46:50.168Z,24.1250
2023-04-20T02:47:51.866Z,24.0785
2023-04-20T02:48:53.638Z,24.1046
2023-04-20T02:49:55.115Z,24.0873
2023-04-20T02:50:56.720Z,24.0750
2023-04-20T02:51:58.358Z,24.0488
2023-04-20T02:53:00.050Z,24.0169
2023-04-20T02:54:01.694Z,23.9515
2023-04-20T02:55:03.363Z,23.8681
2023-04-20T02:56:04.949Z,23.7742
2023-04-20T02:57:06.638Z,23.6819
2023-04-20T02:58:08.274Z,23.6404
2023-04-20T02:59:09.979Z,23.6962
2023-04-20T03:00:11.591Z,23.7746
2023-04-20T03:01:13.204Z,23.8281
2023-04-20T03:02:14.949Z,23.8950
2023-04-20T03:03:16.826Z,23.9604
2023-04-20T03:04:18.344Z,24.0054
2023-04-20T03:05:19.809Z,23.9958
2023-04-20T03:06:21.519Z,23.9012
2023-04-20T03:07:23.163Z,23.8554
2023-04-20T03:08:24.779Z,23.8277
2023-04-20T03:09:26.447Z,23.7892
2023-04-20T03:10:28.006Z,23.7692
2023-04-20T03:11:29.707Z,23.6985
2023-04-20T03:12:31.342Z,23.5877
2023-04-20T03:13:33.080Z,23.5823
2023-04-20T03:14:34.663Z,23.6177
2023-04-20T03:15:36.292Z,23.7154
2023-04-20T03:16:37.992Z,23.7665
2023-04-20T03:17:39.649Z,23.8054
2023-04-20T03:18:41.600Z,23.8604
2023-04-20T03:19:42.899Z,23.9235
2023-04-20T03:20:44.475Z,24.0173
2023-04-20T03:21:46.154Z,24.0692
2023-04-20T03:22:47.807Z,24.1215
2023-04-20T03:23:49.510Z,24.1635
2023-04-20T03:24:53.320Z,24.1792
2023-04-20T03:25:52.763Z,24.1496
2023-04-20T03:26:54.358Z,24.0415
2023-04-20T03:27:56.056Z,23.9400
2023-04-20T03:28:57.678Z,23.8350
2023-04-20T03:29:59.416Z,23.8096
2023-04-20T03:31:01.022Z,23.7685
2023-04-20T03:32:02.687Z,23.7038
2023-04-20T03:33:04.279Z,23.6223
2023-04-20T03:34:06.001Z,23.6265
2023-04-20T03:35:07.654Z,23.6885
2023-04-20T03:36:09.225Z,23.7773
2023-04-20T03:37:10.885Z,23.8350
2023-04-20T03:38:12.495Z,23.9073
2023-04-20T03:39:14.604Z,23.9965
2023-04-20T03:40:15.857Z,24.0685
2023-04-20T03:41:17.470Z,24.1315
2023-04-20T03:42:19.106Z,24.1923
2023-04-20T03:43:21.553Z,24.2369
2023-04-20T03:44:22.457Z,24.2623
2023-04-20T03:45:24.107Z,24.2512
2023-04-20T03:46:25.815Z,24.2150
2023-04-20T03:47:27.362Z,24.1392
2023-04-20T03:48:28.991Z,23.9704
2023-04-20T03:49:31.106Z,23.8342
2023-04-20T03:50:32.636Z,23.8427
2023-04-20T03:51:33.972Z,23.8308
2023-04-20T03:52:35.581Z,23.7973
2023-04-20T03:53:39.448Z,23.7404
2023-04-20T03:54:38.983Z,23.7400
2023-04-20T03:55:40.588Z,23.7900
2023-04-20T03:56:42.147Z,23.8923
2023-04-20T03:57:43.769Z,24.0458
2023-04-20T03:58:45.430Z,24.1777
2023-04-20T03:59:47.144Z,24.2888
2023-04-20T04:00:48.839Z,24.3865
2023-04-20T04:01:50.393Z,24.5000
2023-04-20T04:02:52.102Z,24.6162
2023-04-20T04:03:54.069Z,24.7081
2023-04-20T04:04:55.497Z,24.7469
2023-04-20T04:05:56.944Z,24.7469
2023-04-20T04:06:58.639Z,24.7300
2023-04-20T04:08:00.250Z,24.7388
2023-04-20T04:09:02.850Z,24.8019
2023-04-20T04:10:03.637Z,24.9635
2023-04-20T04:11:05.244Z,25.1546
2023-04-20T04:12:06.792Z,25.2823
2023-04-20T04:13:08.485Z,25.4027
2023-04-20T04:14:10.083Z,25.5423
2023-04-20T04:15:11.802Z,25.6842
2023-04-20T04:16:13.414Z,25.7969
2023-04-20T04:17:15.149Z,25.9235
2023-04-20T04:18:16.673Z,26.0619
2023-04-20T04:19:18.716Z,26.1608
2023-04-20T04:20:19.997Z,26.2250
2023-04-20T04:21:21.665Z,26.2258
2023-04-20T04:22:23.238Z,26.1877
2023-04-20T04:23:24.930Z,26.1219
2023-04-20T04:24:26.613Z,26.1204
2023-04-20T04:25:28.291Z,26.2065
2023-04-20T04:26:30.175Z,26.3485
2023-04-20T04:27:31.559Z,26.5065
2023-04-20T04:28:33.134Z,26.6885
2023-04-20T04:29:34.812Z,26.8073
2023-04-20T04:30:36.407Z,26.8796
2023-04-20T04:31:38.136Z,26.9515
2023-04-20T04:32:39.847Z,26.9631
2023-04-20T04:33:41.454Z,26.9112
2023-04-20T04:34:42.989Z,26.8546
2023-04-20T04:35:44.727Z,26.8588
2023-04-20T04:36:46.362Z,26.9219
2023-04-20T04:37:47.960Z,26.9877
2023-04-20T04:38:49.575Z,27.0481
2023-04-20T04:39:51.289Z,27.0746
2023-04-20T04:40:52.872Z,27.0708
2023-04-20T04:41:54.616Z,27.0931
2023-04-20T04:42:56.213Z,27.1192
2023-04-20T04:43:57.794Z,27.0700
2023-04-20T04:44:59.483Z,27.0219
2023-04-20T04:46:01.123Z,27.0204
2023-04-20T04:47:02.748Z,27.0112
2023-04-20T04:48:06.073Z,27.0150
2023-04-20T04:49:06.099Z,27.0812
2023-04-20T04:50:07.740Z,27.1631
2023-04-20T04:51:09.303Z,27.2423
2023-04-20T04:52:11.062Z,27.2773
2023-04-20T04:53:13.588Z,27.2973
2023-04-20T04:54:14.305Z,27.2885
2023-04-20T04:55:16.550Z,27.2919
2023-04-20T04:56:17.589Z,27.2792
2023-04-20T04:57:19.295Z,27.2650
2023-04-20T04:58:20.895Z,27.2335
2023-04-20T04:59:22.525Z,27.2227
2023-04-20T05:00:24.123Z,27.2035
2023-04-20T05:01:25.957Z,27.1873
2023-04-20T05:02:27.691Z,27.1715
2023-04-20T05:03:29.278Z,27.1654
2023-04-20T05:04:30.832Z,27.1892
2023-04-20T05:05:32.399Z,27.2312
2023-04-20T05:06:34.015Z,27.2927
2023-04-20T05:07:35.746Z,27.3354
2023-04-20T05:08:37.267Z,27.3731
2023-04-20T05:09:38.953Z,27.4088
2023-04-20T05:10:40.584Z,27.4096
2023-04-20T05:11:42.326Z,27.3638
2023-04-20T05:12:43.974Z,27.3142
2023-04-20T05:13:45.725Z,27.3119
2023-04-20T05:14:47.255Z,27.3042
2023-04-20T05:15:48.826Z,27.3035
2023-04-20T05:16:51.153Z,27.3035
2023-04-20T05:17:52.279Z,27.2677
2023-04-20T05:18:53.829Z,27.2919
2023-04-20T05:19:55.425Z,27.3081
2023-04-20T05:20:56.984Z,27.2954
2023-04-20T05:21:58.710Z,27.2815
2023-04-20T05:23:00.383Z,27.2619
2023-04-20T05:24:02.008Z,27.2246
2023-04-20T05:25:03.701Z,27.2454
2023-04-20T05:26:05.295Z,27.2435
2023-04-20T05:27:06.963Z,27.2415
2023-04-20T05:28:08.596Z,27.2269
2023-04-20T05:29:10.206Z,27.2346
2023-04-20T05:30:20.233Z,27.2519
2023-04-20T05:31:13.557Z,27.2296
2023-04-20T05:32:15.154Z,27.2442
2023-04-20T05:33:16.881Z,27.2454
2023-04-20T05:34:18.443Z,27.2581
2023-04-20T05:35:20.121Z,27.2327
2023-04-20T05:36:21.714Z,27.2073
2023-04-20T05:37:23.416Z,27.1646
2023-04-20T05:38:25.049Z,27.1708
2023-04-20T05:39:26.736Z,27.1542
2023-04-20T05:40:28.299Z,27.1535
2023-04-20T05:41:29.956Z,27.1662
2023-04-20T05:42:31.632Z,27.2008
2023-04-20T05:43:33.264Z,27.2096
2023-04-20T05:44:34.844Z,27.1831
2023-04-20T05:45:36.628Z,27.1912
2023-04-20T05:46:38.171Z,27.1712
2023-04-20T05:47:39.928Z,27.1996
2023-04-20T05:48:41.543Z,27.2300
2023-04-20T05:49:43.162Z,27.2492
2023-04-20T05:50:44.831Z,27.2665
2023-04-20T05:51:46.408Z,27.2569
2023-04-20T05:52:48.137Z,27.2477
2023-04-20T05:53:49.682Z,27.2550
2023-04-20T05:54:51.329Z,27.2377
2023-04-20T05:55:52.923Z,27.2115
2023-04-20T05:56:54.643Z,27.2235
2023-04-20T05:57:56.627Z,27.2215
2023-04-20T05:58:58.091Z,27.2404
2023-04-20T05:59:59.504Z,27.2262
2023-04-20T06:01:02.170Z,27.2300
2023-04-20T06:02:02.885Z,27.2377
2023-04-20T06:03:04.826Z,27.2485
2023-04-20T06:04:06.401Z,27.2558
2023-04-20T06:05:07.964Z,27.2592
2023-04-20T06:06:09.408Z,27.2423
2023-04-20T06:07:11.067Z,27.2231
2023-04-20T06:08:12.794Z,27.2377
2023-04-20T06:09:14.380Z,27.2008
2023-04-20T06:10:15.956Z,27.2062
2023-04-20T06:11:17.687Z,27.1827
2023-04-20T06:12:19.239Z,27.1950
2023-04-20T06:13:21.147Z,27.1808
2023-04-20T06:14:22.556Z,27.1954
2023-04-20T06:15:24.221Z,27.2081
2023-04-20T06:16:25.900Z,27.2065
2023-04-20T06:17:27.568Z,27.1808
2023-04-20T06:18:29.625Z,27.1696
2023-04-20T06:19:30.805Z,27.1292
2023-04-20T06:20:32.482Z,27.1554
2023-04-20T06:21:34.093Z,27.1935
2023-04-20T06:22:35.687Z,27.2231
2023-04-20T06:23:37.677Z,27.2096
2023-04-20T06:24:38.977Z,27.2327
2023-04-20T06:25:40.619Z,27.2373
2023-04-20T06:26:42.380Z,27.2327
2023-04-20T06:27:43.943Z,27.2381
2023-04-20T06:28:48.668Z,27.2469
2023-04-20T06:29:47.277Z,27.2650
2023-04-20T06:30:48.912Z,27.2719
2023-04-20T06:31:50.541Z,27.2765
2023-04-20T06:32:52.294Z,27.3008
2023-04-20T06:33:53.841Z,27.3304
2023-04-20T06:34:55.419Z,27.3462
2023-04-20T06:35:57.080Z,27.3485
2023-04-20T06:36:58.744Z,27.3219
2023-04-20T06:38:00.387Z,27.3050
2023-04-20T06:39:02.117Z,27.3015
2023-04-20T06:40:03.619Z,27.2858
2023-04-20T06:41:05.272Z,27.2592
2023-04-20T06:42:06.948Z,27.2612
2023-04-20T06:43:08.588Z,27.2869
2023-04-20T06:44:10.199Z,27.2896
2023-04-20T06:45:11.899Z,27.2831
2023-04-20T06:46:13.500Z,27.2938
2023-04-20T06:47:15.133Z,27.2962
2023-04-20T06:48:30.915Z,27.3200
2023-04-20T06:49:18.549Z,27.3442
2023-04-20T06:50:20.051Z,27.3465
2023-04-20T06:51:22.571Z,27.3173
2023-04-20T06:52:24.130Z,27.3208
2023-04-20T06:53:25.621Z,27.3238
2023-04-20T06:54:26.682Z,27.3250
2023-04-20T06:55:28.924Z,27.3415
2023-04-20T06:56:30.584Z,27.3727
2023-04-20T06:57:31.582Z,27.4408
2023-04-20T06:58:33.173Z,27.4450
2023-04-20T06:59:34.837Z,27.4742
2023-04-20T07:00:36.464Z,27.4873
2023-04-20T07:01:38.197Z,27.5008
2023-04-20T07:02:39.843Z,27.4962
2023-04-20T07:03:42.314Z,27.4542
2023-04-20T07:04:43.127Z,27.4600
2023-04-20T07:05:44.692Z,27.4781
2023-04-20T07:06:46.282Z,27.5146
2023-04-20T07:07:47.939Z,27.5104
2023-04-20T07:08:49.596Z,27.5292
2023-04-20T07:09:51.238Z,27.5450
2023-04-20T07:10:52.916Z,27.5588
2023-04-20T07:11:54.483Z,27.6050
2023-04-20T07:12:56.299Z,27.6481
2023-04-20T07:13:57.953Z,27.6515
2023-04-20T07:14:59.751Z,27.6569
2023-04-20T07:16:01.280Z,27.7400
2023-04-20T07:17:02.928Z,27.7677
2023-04-20T07:18:04.614Z,27.7542
2023-04-20T07:19:06.161Z,27.7754
2023-04-20T07:20:07.875Z,27.7912
2023-04-20T07:21:09.450Z,27.8004
2023-04-20T07:22:11.132Z,27.7823
2023-04-20T07:23:13.687Z,27.7969
2023-04-20T07:24:14.400Z,27.8265
2023-04-20T07:25:16.041Z,27.8562
2023-04-20T07:26:18.638Z,27.8727
2023-04-20T07:27:19.272Z,27.8935
2023-04-20T07:28:21.874Z,27.8854
2023-04-20T07:29:23.593Z,27.8923
2023-04-20T07:30:24.189Z,27.9062
2023-04-20T07:31:25.894Z,27.9146
2023-04-20T07:32:27.994Z,27.9050
2023-04-20T07:33:29.273Z,27.9385
2023-04-20T07:34:30.853Z,27.9765
2023-04-20T07:35:32.554Z,28.0150
2023-04-20T07:36:34.056Z,28.0238
2023-04-20T07:37:35.978Z,28.0338
2023-04-20T07:38:37.977Z,28.0492
2023-04-20T07:39:39.006Z,28.0623
2023-04-20T07:40:40.987Z,28.0769
2023-04-20T07:41:42.334Z,28.1000
2023-04-20T07:42:43.894Z,28.1396
2023-04-20T07:43:46.382Z,28.1562
2023-04-20T07:44:47.317Z,28.1481
2023-04-20T07:45:48.995Z,28.1538
2023-04-20T07:46:50.622Z,28.1669
2023-04-20T07:47:52.185Z,28.2054
2023-04-20T07:48:54.090Z,28.1808
2023-04-20T07:49:55.501Z,28.1819
2023-04-20T07:50:58.257Z,28.2054
2023-04-20T07:52:09.343Z,28.2142
2023-04-20T07:53:00.211Z,28.2300
2023-04-20T07:54:01.937Z,28.2538
2023-04-20T07:55:03.545Z,28.2562
2023-04-20T07:56:05.231Z,28.2658
2023-04-20T07:57:06.825Z,28.2750
2023-04-20T07:58:08.573Z,28.2877
2023-04-20T07:59:10.554Z,28.2904
2023-04-20T08:00:11.827Z,28.3081
2023-04-20T08:01:13.532Z,28.3165
2023-04-20T08:02:15.100Z,28.3188
2023-04-20T08:03:17.062Z,28.3238
2023-04-20T08:04:18.554Z,28.3442
2023-04-20T08:05:20.134Z,28.3585
2023-04-20T08:06:21.698Z,28.3854
2023-04-20T08:07:23.266Z,28.4242
2023-04-20T08:08:24.953Z,28.4465
2023-04-20T08:09:26.558Z,28.4719
2023-04-20T08:10:28.222Z,28.4892
2023-04-20T08:11:29.896Z,28.4965
2023-04-20T08:12:31.463Z,28.5146
2023-04-20T08:13:33.112Z,28.5127
2023-04-20T08:14:34.810Z,28.5396
2023-04-20T08:15:36.501Z,28.5542
2023-04-20T08:16:38.087Z,28.5381
2023-04-20T08:17:39.786Z,28.5238
2023-04-20T08:18:41.472Z,28.4888
2023-04-20T08:19:44.965Z,28.4719
2023-04-20T08:20:44.622Z,28.4877
2023-04-20T08:21:46.322Z,28.5096
2023-04-20T08:22:47.944Z,28.5458
2023-04-20T08:23:49.513Z,28.5950
2023-04-20T08:24:51.204Z,28.6508
2023-04-20T08:25:52.862Z,28.7000
2023-04-20T08:26:54.570Z,28.7142
2023-04-20T08:27:56.096Z,28.7219
2023-04-20T08:28:57.783Z,28.7262
2023-04-20T08:29:59.409Z,28.7358
2023-04-20T08:31:01.112Z,28.7519
2023-04-20T08:32:02.998Z,28.7635
2023-04-20T08:33:04.414Z,28.7696
2023-04-20T08:34:05.952Z,28.7800
2023-04-20T08:35:08.436Z,28.7958
2023-04-20T08:36:09.266Z,28.8204
2023-04-20T08:37:11.857Z,28.8185
2023-04-20T08:38:17.917Z,28.8573
2023-04-20T08:39:14.185Z,28.8738
2023-04-20T08:40:15.860Z,28.8631
2023-04-20T08:41:17.563Z,28.9158
2023-04-20T08:42:19.237Z,28.9588
2023-04-20T08:43:22.015Z,28.9692
2023-04-20T08:44:22.540Z,28.9977
2023-04-20T08:45:24.053Z,29.0154
2023-04-20T08:46:25.789Z,29.0246
2023-04-20T08:47:28.335Z,29.0312
2023-04-20T08:48:29.058Z,29.0335
2023-04-20T08:49:30.644Z,29.0573
2023-04-20T08:50:32.319Z,29.0681
2023-04-20T08:51:33.989Z,29.0773
2023-04-20T08:52:35.652Z,29.0915
2023-04-20T08:53:37.241Z,29.0735
2023-04-20T08:54:42.790Z,29.0877
2023-04-20T08:55:40.489Z,29.0650
2023-04-20T08:56:42.201Z,29.0496
2023-04-20T08:57:43.932Z,29.0258
2023-04-20T08:58:45.459Z,29.0077
2023-04-20T08:59:47.098Z,28.9846
2023-04-20T09:00:48.794Z,28.9246
2023-04-20T09:01:50.455Z,28.8788
2023-04-20T09:02:52.162Z,28.8315
2023-04-20T09:03:53.832Z,28.7881
2023-04-20T09:04:55.440Z,28.7765
2023-04-20T09:05:57.028Z,28.7592
2023-04-20T09:06:58.699Z,28.7146
2023-04-20T09:08:00.326Z,28.6600
2023-04-20T09:09:01.857Z,28.6362
2023-04-20T09:10:03.567Z,28.5438
2023-04-20T09:11:05.154Z,28.4900
2023-04-20T09:12:06.923Z,28.4385
2023-04-20T09:13:08.565Z,28.3623
2023-04-20T09:14:10.171Z,28.3381
2023-04-20T09:15:11.758Z,28.3088
2023-04-20T09:16:13.498Z,28.2873
2023-04-20T09:17:14.990Z,28.2577
2023-04-20T09:18:16.869Z,28.2208
2023-04-20T09:19:18.319Z,28.1512
2023-04-20T09:20:19.974Z,28.0781
2023-04-20T09:21:21.627Z,28.0331
2023-04-20T09:22:23.297Z,28.0388
2023-04-20T09:23:24.980Z,28.0973
2023-04-20T09:24:26.569Z,28.0627
2023-04-20T09:25:29.017Z,27.9181
2023-04-20T09:26:29.871Z,27.7923
2023-04-20T09:27:31.480Z,27.7619
2023-04-20T09:28:33.201Z,27.7569
2023-04-20T09:29:34.789Z,27.7262
2023-04-20T09:30:37.284Z,27.6854
2023-04-20T09:31:38.055Z,27.7154
2023-04-20T09:32:40.376Z,27.7038
2023-04-20T09:33:41.466Z,27.6650
2023-04-20T09:34:43.093Z,27.6308
2023-04-20T09:35:44.660Z,27.5831
2023-04-20T09:36:46.316Z,27.5862
2023-04-20T09:37:47.960Z,27.6062
2023-04-20T09:38:49.678Z,27.6388
2023-04-20T09:39:51.191Z,27.7273
2023-04-20T09:40:52.853Z,27.7754
2023-04-20T09:41:54.466Z,27.8100
2023-04-20T09:42:56.131Z,27.8362
2023-04-20T09:43:58.711Z,27.8500
2023-04-20T09:44:59.466Z,27.8381
2023-04-20T09:46:01.094Z,27.8154
2023-04-20T09:47:03.328Z,27.7785
2023-04-20T09:48:04.355Z,27.7388
2023-04-20T09:49:06.185Z,27.7146
2023-04-20T09:50:22.921Z,27.6469
2023-04-20T09:51:09.392Z,27.5446
2023-04-20T09:52:10.959Z,27.6215
2023-04-20T09:53:13.188Z,27.6885
2023-04-20T09:54:14.338Z,27.7277
2023-04-20T09:55:15.970Z,27.7127
2023-04-20T09:56:17.535Z,27.6838
2023-04-20T09:57:19.247Z,27.6600
2023-04-20T09:58:21.087Z,27.6262
2023-04-20T09:59:22.506Z,27.6108
2023-04-20T10:00:24.162Z,27.5827
2023-04-20T10:01:25.897Z,27.5604
2023-04-20T10:02:27.501Z,27.5604
2023-04-20T10:03:29.321Z,27.6204
2023-04-20T10:04:31.070Z,27.6581
2023-04-20T10:05:32.759Z,27.6846
2023-04-20T10:06:34.415Z,27.6923
2023-04-20T10:07:35.891Z,27.6942
2023-04-20T10:08:37.544Z,27.6400
2023-04-20T10:09:42.465Z,27.5831
2023-04-20T10:10:45.509Z,27.5118
2023-04-20T10:11:53.504Z,27.4562
2023-04-20T10:12:48.781Z,27.4242
2023-04-20T10:13:50.434Z,27.3604
2023-04-20T10:14:52.122Z,27.3550
2023-04-20T10:15:53.731Z,27.3969
2023-04-20T10:16:55.532Z,27.4269
2023-04-20T10:17:57.185Z,27.4365
2023-04-20T10:18:58.682Z,27.4523
2023-04-20T10:20:00.564Z,27.3931
2023-04-20T10:21:02.028Z,27.3492
2023-04-20T10:22:03.559Z,27.3073
2023-04-20T10:23:05.248Z,27.2527
2023-04-20T10:24:06.961Z,27.2238
2023-04-20T10:25:08.470Z,27.2546
2023-04-20T10:26:11.101Z,27.2873
2023-04-20T10:27:12.681Z,27.3119
2023-04-20T10:28:13.529Z,27.3300
2023-04-20T10:29:15.037Z,27.3227
2023-04-20T10:30:16.774Z,27.2935
2023-04-20T10:31:18.382Z,27.2531
2023-04-20T10:32:20.040Z,27.1965
2023-04-20T10:33:21.762Z,27.1215
2023-04-20T10:34:23.413Z,27.1215
2023-04-20T10:35:24.974Z,27.1442
2023-04-20T10:36:26.565Z,27.1985
2023-04-20T10:37:28.216Z,27.2235
2023-04-20T10:38:30.080Z,27.2192
2023-04-20T10:39:31.684Z,27.1977
2023-04-20T10:40:33.148Z,27.1554
2023-04-20T10:41:35.499Z,27.0958
2023-04-20T10:42:36.487Z,27.0423
2023-04-20T10:43:38.135Z,26.9877
2023-04-20T10:44:39.847Z,26.9900
2023-04-20T10:45:41.407Z,27.0396
2023-04-20T10:46:43.088Z,27.1108
2023-04-20T10:47:44.663Z,27.1750
2023-04-20T10:48:46.426Z,27.2104
2023-04-20T10:49:48.036Z,27.2304
2023-04-20T10:50:49.665Z,27.2419
2023-04-20T10:51:51.245Z,27.2369
2023-04-20T10:52:52.956Z,27.2281
2023-04-20T10:53:54.650Z,27.1981
2023-04-20T10:54:56.272Z,27.1558
2023-04-20T10:55:58.819Z,27.1162
2023-04-20T10:57:00.471Z,27.1219
2023-04-20T10:58:01.200Z,27.1985
2023-04-20T10:59:03.041Z,27.2569
2023-04-20T11:00:04.549Z,27.2862
2023-04-20T11:01:06.211Z,27.2962
2023-04-20T11:02:07.988Z,27.2973
2023-04-20T11:03:09.509Z,27.2996
2023-04-20T11:04:11.171Z,27.2900
2023-04-20T11:05:12.947Z,27.2708
2023-04-20T11:06:15.408Z,27.2442
2023-04-20T11:07:16.076Z,27.2015
2023-04-20T11:08:17.730Z,27.2200
2023-04-20T11:09:19.610Z,27.2631
2023-04-20T11:10:21.074Z,27.2815
2023-04-20T11:11:22.596Z,27.3046
2023-04-20T11:12:24.275Z,27.3031
2023-04-20T11:13:25.968Z,27.3073
2023-04-20T11:14:27.795Z,27.2838
2023-04-20T11:15:29.280Z,27.2450
2023-04-20T11:16:47.506Z,27.1954
2023-04-20T11:17:32.655Z,27.1523
2023-04-20T11:18:34.242Z,27.1488
2023-04-20T11:19:35.773Z,27.2000
2023-04-20T11:20:37.540Z,27.2446
2023-04-20T11:21:39.169Z,27.2758
2023-04-20T11:22:40.769Z,27.3104
2023-04-20T11:23:42.347Z,27.3123
2023-04-20T11:24:44.100Z,27.2958
2023-04-20T11:25:45.673Z,27.2558
2023-04-20T11:26:47.365Z,27.2219
2023-04-20T11:27:49.014Z,27.2062
2023-04-20T11:28:51.559Z,27.2112
2023-04-20T11:29:52.317Z,27.2538
2023-04-20T11:30:53.889Z,27.2842
2023-04-20T11:31:55.706Z,27.2969
2023-04-20T11:32:57.300Z,27.2931
2023-04-20T11:33:58.840Z,27.2942
2023-04-20T11:35:07.015Z,27.2762
2023-04-20T11:36:06.916Z,27.2535
2023-04-20T11:37:08.503Z,27.2238
2023-04-20T11:38:10.560Z,27.1969
2023-04-20T11:39:11.812Z,27.2062
2023-04-20T11:40:13.582Z,27.2385
2023-04-20T11:41:15.076Z,27.2592
2023-04-20T11:42:16.867Z,27.2800
2023-04-20T11:43:18.368Z,27.2981
2023-04-20T11:44:20.039Z,27.2981
2023-04-20T11:45:21.641Z,27.2719
2023-04-20T11:46:23.395Z,27.2273
2023-04-20T11:47:24.959Z,27.1854
2023-04-20T11:48:26.649Z,27.1285
2023-04-20T11:49:28.230Z,27.1177
2023-04-20T11:50:30.870Z,27.1477
2023-04-20T11:51:31.490Z,27.1838
2023-04-20T11:52:33.089Z,27.2142
2023-04-20T11:53:34.801Z,27.2285
2023-04-20T11:54:36.817Z,27.2123
2023-04-20T11:55:38.007Z,27.1642
2023-04-20T11:56:39.602Z,27.0919
2023-04-20T11:57:41.247Z,27.0146
2023-04-20T11:58:43.024Z,26.9946
2023-04-20T11:59:44.672Z,26.9438
2023-04-20T12:00:46.367Z,26.9469
2023-04-20T12:01:48.137Z,27.0358
2023-04-20T12:02:49.625Z,27.0892
2023-04-20T12:03:51.500Z,27.1419
2023-04-20T12:04:52.924Z,27.1635
2023-04-20T12:05:55.223Z,27.1623
2023-04-20T12:06:56.045Z,27.1265
2023-04-20T12:07:58.344Z,27.0712
2023-04-20T12:08:59.388Z,27.0185
2023-04-20T12:10:01.125Z,26.9673
2023-04-20T12:11:02.738Z,26.9188
2023-04-20T12:12:04.379Z,26.9527
2023-04-20T12:13:05.982Z,27.0127
2023-04-20T12:14:07.703Z,27.0681
2023-04-20T12:15:09.307Z,27.1081
2023-04-20T12:16:11.195Z,27.1373
2023-04-20T12:17:12.636Z,27.1296
2023-04-20T12:18:14.228Z,27.1062
2023-04-20T12:19:15.886Z,27.0419
2023-04-20T12:20:17.576Z,26.9673
2023-04-20T12:21:19.226Z,26.8950
2023-04-20T12:22:20.767Z,26.8331
2023-04-20T12:23:22.475Z,26.8308
2023-04-20T12:24:24.163Z,26.8992
2023-04-20T12:25:25.798Z,26.9788